Aviation Digital Data Service (ADDS)

Output produced by METARs form (0731 UTC 30 October 2020)
found at http://www.aviationweather.gov/metar/data/
 
Forecast for: ZBAA (BEIJING/PEKING , CN)
Text: TAF ZBAA 300301Z 3006/3106 18004MPS 5000 BR NSC TX19/3106Z TN05/3021Z
Forecast period: 0600 UTC 30 October 2020 to 0200 UTC 31 October 2020
Forecast type: FROM: standard forecast or significant change
Winds: from the S (180 degrees) at 9 MPH (8 knots; 4.1 m/s)
Visibility: 3 miles (5 km)
Ceiling: unknown
Clouds: missing
Weather: BR  (mist)
Text: BECMG 3102/3103 31008G14MPS
Forecast period: 0200 to 0600 UTC 31 October 2020
Forecast type: BECOMING: Conditions expected to become as follows by 0300 UTC 31 October 2020
Winds: from the NW (310 degrees) at 18 MPH (16 knots; 8.2 m/s)
gusting to 31 MPH (27 knots; 13.9 m/s)
Visibility: 3 miles (5 km)
Ceiling: unknown
Clouds: missing
Weather: BR  (mist)